sensor_id;sensor_type;location;lat;lon;timestamp;pressure;altitude;pressure_sealevel;temperature;humidity
69574;BME280;62840;52.366;5.980;2022-09-12T00:02:20;101708.50;;;14.20;71.59
69574;BME280;62840;52.366;5.980;2022-09-12T00:04:46;101705.09;;;14.18;71.43
69574;BME280;62840;52.366;5.980;2022-09-12T00:07:12;101701.69;;;14.16;71.51
69574;BME280;62840;52.366;5.980;2022-09-12T00:09:38;101701.94;;;14.13;71.50
69574;BME280;62840;52.366;5.980;2022-09-12T00:12:04;101697.56;;;14.12;71.63
69574;BME280;62840;52.366;5.980;2022-09-12T00:14:33;101700.50;;;14.09;71.55
69574;BME280;62840;52.366;5.980;2022-09-12T00:17:00;101700.50;;;14.09;71.58
69574;BME280;62840;52.366;5.980;2022-09-12T00:19:26;101696.22;;;14.06;71.53
69574;BME280;62840;52.366;5.980;2022-09-12T00:21:55;101702.72;;;14.04;71.57
69574;BME280;62840;52.366;5.980;2022-09-12T00:24:21;101693.94;;;14.02;71.78
69574;BME280;62840;52.366;5.980;2022-09-12T00:26:47;101690.56;;;13.99;71.71
69574;BME280;62840;52.366;5.980;2022-09-12T00:29:15;101690.56;;;13.99;71.51
69574;BME280;62840;52.366;5.980;2022-09-12T00:31:45;101686.28;;;13.97;71.57
69574;BME280;62840;52.366;5.980;2022-09-12T00:34:11;101691.78;;;13.95;71.85
69574;BME280;62840;52.366;5.980;2022-09-12T00:36:38;101687.66;;;13.91;71.83
69574;BME280;62840;52.366;5.980;2022-09-12T00:39:05;101686.94;;;13.89;71.82
69574;BME280;62840;52.366;5.980;2022-09-12T00:41:34;101688.03;;;13.87;71.99
69574;BME280;62840;52.366;5.980;2022-09-12T00:47:16;101679.66;;;13.80;71.79
69574;BME280;62840;52.366;5.980;2022-09-12T00:49:48;101685.13;;;13.78;71.98
69574;BME280;62840;52.366;5.980;2022-09-12T00:52:20;101677.94;;;13.79;71.73
69574;BME280;62840;52.366;5.980;2022-09-12T00:54:54;101676.25;;;13.78;71.74
69574;BME280;62840;52.366;5.980;2022-09-12T00:57:29;101672.00;;;13.75;71.78
69574;BME280;62840;52.366;5.980;2022-09-12T01:00:05;101676.50;;;13.75;72.00
69574;BME280;62840;52.366;5.980;2022-09-12T01:02:35;101666.03;;;13.72;71.95
69574;BME280;62840;52.366;5.980;2022-09-12T01:05:01;101666.75;;;13.74;72.21
69574;BME280;62840;52.366;5.980;2022-09-12T01:07:27;101666.88;;;13.72;72.03
69574;BME280;62840;52.366;5.980;2022-09-12T01:09:54;101672.38;;;13.71;71.99
69574;BME280;62840;52.366;5.980;2022-09-12T01:12:19;101666.28;;;13.69;72.00
69574;BME280;62840;52.366;5.980;2022-09-12T01:14:45;101667.25;;;13.68;71.94
69574;BME280;62840;52.366;5.980;2022-09-12T01:17:12;101666.78;;;13.63;71.84
69574;BME280;62840;52.366;5.980;2022-09-12T01:20:18;101666.78;;;13.63;71.95
69574;BME280;62840;52.366;5.980;2022-09-12T01:23:23;101655.59;;;13.57;71.68
69574;BME280;62840;52.366;5.980;2022-09-12T01:30:02;101657.06;;;13.50;71.98
69574;BME280;62840;52.366;5.980;2022-09-12T01:36:07;101653.66;;;13.48;71.90
69574;BME280;62840;52.366;5.980;2022-09-12T01:38:50;101655.59;;;13.46;71.94
69574;BME280;62840;52.366;5.980;2022-09-12T01:41:26;101653.88;;;13.45;71.98
69574;BME280;62840;52.366;5.980;2022-09-12T01:44:03;101645.84;;;13.45;72.19
69574;BME280;62840;52.366;5.980;2022-09-12T01:46:43;101643.16;;;13.45;72.13
69574;BME280;62840;52.366;5.980;2022-09-12T01:49:15;101642.31;;;13.45;72.30
69574;BME280;62840;52.366;5.980;2022-09-12T01:51:52;101643.16;;;13.45;72.16
69574;BME280;62840;52.366;5.980;2022-09-12T01:54:28;101641.47;;;13.44;72.22
69574;BME280;62840;52.366;5.980;2022-09-12T01:57:03;101635.28;;;13.44;72.01
69574;BME280;62840;52.366;5.980;2022-09-12T01:59:37;101635.28;;;13.44;72.18
69574;BME280;62840;52.366;5.980;2022-09-12T02:02:12;101632.72;;;13.42;72.31
69574;BME280;62840;52.366;5.980;2022-09-12T02:04:45;101623.69;;;13.43;72.37
69574;BME280;62840;52.366;5.980;2022-09-12T02:07:19;101623.69;;;13.43;72.21
69574;BME280;62840;52.366;5.980;2022-09-12T02:09:53;101620.31;;;13.41;72.20
69574;BME280;62840;52.366;5.980;2022-09-12T02:12:40;101613.09;;;13.42;72.27
69574;BME280;62840;52.366;5.980;2022-09-12T02:15:11;101611.53;;;13.39;72.33
69574;BME280;62840;52.366;5.980;2022-09-12T02:17:46;101615.19;;;13.38;72.42
69574;BME280;62840;52.366;5.980;2022-09-12T02:20:18;101601.94;;;13.36;72.28
69574;BME280;62840;52.366;5.980;2022-09-12T02:22:48;101599.38;;;13.35;72.05
69574;BME280;62840;52.366;5.980;2022-09-12T02:25:19;101603.88;;;13.34;72.42
69574;BME280;62840;52.366;5.980;2022-09-12T02:27:50;101604.72;;;13.35;72.21
69574;BME280;62840;52.366;5.980;2022-09-12T02:30:20;101607.50;;;13.33;72.35
69574;BME280;62840;52.366;5.980;2022-09-12T02:32:56;101604.94;;;13.32;72.42
69574;BME280;62840;52.366;5.980;2022-09-12T02:35:32;101604.94;;;13.32;72.45
69574;BME280;62840;52.366;5.980;2022-09-12T02:38:08;101594.50;;;13.29;72.48
69574;BME280;62840;52.366;5.980;2022-09-12T02:40:39;101606.31;;;13.26;72.40
69574;BME280;62840;52.366;5.980;2022-09-12T02:43:06;101599.41;;;13.24;72.18
69574;BME280;62840;52.366;5.980;2022-09-12T02:45:33;101596.94;;;13.21;72.22
69574;BME280;62840;52.366;5.980;2022-09-12T02:48:07;101600.63;;;13.20;72.33
69574;BME280;62840;52.366;5.980;2022-09-12T02:50:37;101600.00;;;13.16;72.23
69574;BME280;62840;52.366;5.980;2022-09-12T02:53:06;101590.41;;;13.13;72.20
69574;BME280;62840;52.366;5.980;2022-09-12T02:55:34;101584.44;;;13.10;72.10
69574;BME280;62840;52.366;5.980;2022-09-12T02:58:05;101589.19;;;13.06;72.10
69574;BME280;62840;52.366;5.980;2022-09-12T03:00:38;101585.94;;;13.03;72.03
69574;BME280;62840;52.366;5.980;2022-09-12T03:03:25;101578.97;;;13.00;72.10
69574;BME280;62840;52.366;5.980;2022-09-12T03:06:09;101570.47;;;12.95;72.18
69574;BME280;62840;52.366;5.980;2022-09-12T03:09:04;101579.63;;;12.92;72.22
69574;BME280;62840;52.366;5.980;2022-09-12T03:11:57;101583.63;;;12.87;72.23
69574;BME280;62840;52.366;5.980;2022-09-12T03:14:43;101582.19;;;12.83;72.29
69574;BME280;62840;52.366;5.980;2022-09-12T03:17:29;101574.66;;;12.77;72.41
69574;BME280;62840;52.366;5.980;2022-09-12T03:20:12;101575.75;;;12.74;72.24
69574;BME280;62840;52.366;5.980;2022-09-12T03:22:50;101567.09;;;12.70;72.29
69574;BME280;62840;52.366;5.980;2022-09-12T03:25:22;101570.03;;;12.67;72.23
69574;BME280;62840;52.366;5.980;2022-09-12T03:27:56;101574.66;;;12.65;72.14
69574;BME280;62840;52.366;5.980;2022-09-12T03:30:25;101572.94;;;12.64;71.97
69574;BME280;62840;52.366;5.980;2022-09-12T03:32:52;101574.91;;;12.62;72.09
69574;BME280;62840;52.366;5.980;2022-09-12T03:35:23;101585.63;;;12.62;72.22
69574;BME280;62840;52.366;5.980;2022-09-12T03:37:50;101576.13;;;12.58;72.22
69574;BME280;62840;52.366;5.980;2022-09-12T03:40:17;101575.38;;;12.56;72.10
69574;BME280;62840;52.366;5.980;2022-09-12T03:42:43;101571.97;;;12.54;72.14
69574;BME280;62840;52.366;5.980;2022-09-12T03:45:10;101579.28;;;12.52;72.00
69574;BME280;62840;52.366;5.980;2022-09-12T03:47:36;101574.19;;;12.49;72.06
69574;BME280;62840;52.366;5.980;2022-09-12T03:50:02;101572.47;;;12.48;72.01
69574;BME280;62840;52.366;5.980;2022-09-12T03:52:31;101563.69;;;12.46;72.04
69574;BME280;62840;52.366;5.980;2022-09-12T03:54:57;101558.59;;;12.43;71.95
69574;BME280;62840;52.366;5.980;2022-09-12T03:57:23;101565.16;;;12.39;72.09
69574;BME280;62840;52.366;5.980;2022-09-12T03:59:49;101560.06;;;12.36;71.81
69574;BME280;62840;52.366;5.980;2022-09-12T04:02:14;101555.66;;;12.35;72.20
69574;BME280;62840;52.366;5.980;2022-09-12T04:04:40;101558.50;;;12.33;72.20
69574;BME280;62840;52.366;5.980;2022-09-12T04:07:06;101547.16;;;12.29;71.95
69574;BME280;62840;52.366;5.980;2022-09-12T04:09:34;101547.16;;;12.29;72.05
69574;BME280;62840;52.366;5.980;2022-09-12T04:12:01;101547.16;;;12.29;72.02
69574;BME280;62840;52.366;5.980;2022-09-12T04:14:26;101546.41;;;12.27;72.00
69574;BME280;62840;52.366;5.980;2022-09-12T04:16:52;101538.38;;;12.27;72.16
69574;BME280;62840;52.366;5.980;2022-09-12T04:19:18;101545.56;;;12.27;72.13
69574;BME280;62840;52.366;5.980;2022-09-12T04:21:44;101546.50;;;12.26;72.10
69574;BME280;62840;52.366;5.980;2022-09-12T04:24:10;101544.81;;;12.25;72.10
69574;BME280;62840;52.366;5.980;2022-09-12T04:26:38;101556.38;;;12.25;72.23
69574;BME280;62840;52.366;5.980;2022-09-12T04:29:04;101549.31;;;12.24;72.24
69574;BME280;62840;52.366;5.980;2022-09-12T04:31:30;101543.97;;;12.24;72.12
69574;BME280;62840;52.366;5.980;2022-09-12T04:33:58;101549.31;;;12.24;72.01
69574;BME280;62840;52.366;5.980;2022-09-12T04:36:26;101546.66;;;12.24;72.09
69574;BME280;62840;52.366;5.980;2022-09-12T04:38:53;101545.91;;;12.22;72.30
69574;BME280;62840;52.366;5.980;2022-09-12T04:41:21;101549.53;;;12.21;72.07
69574;BME280;62840;52.366;5.980;2022-09-12T04:43:55;101548.69;;;12.21;72.38
69574;BME280;62840;52.366;5.980;2022-09-12T04:46:22;101546.13;;;12.19;72.34
69574;BME280;62840;52.366;5.980;2022-09-12T04:48:49;101544.44;;;12.18;72.53
69574;BME280;62840;52.366;5.980;2022-09-12T04:51:17;101554.91;;;12.21;72.49
69574;BME280;62840;52.366;5.980;2022-09-12T04:53:47;101552.22;;;12.21;72.20
69574;BME280;62840;52.366;5.980;2022-09-12T04:56:14;101547.59;;;12.23;72.44
69574;BME280;62840;52.366;5.980;2022-09-12T04:58:40;101545.91;;;12.22;72.47
69574;BME280;62840;52.366;5.980;2022-09-12T05:01:11;101552.94;;;12.23;72.45
69574;BME280;62840;52.366;5.980;2022-09-12T05:03:39;101545.91;;;12.22;72.45
69574;BME280;62840;52.366;5.980;2022-09-12T05:06:08;101552.94;;;12.23;72.50
69574;BME280;62840;52.366;5.980;2022-09-12T05:08:35;101548.44;;;12.24;72.39
69574;BME280;62840;52.366;5.980;2022-09-12T05:11:02;101542.25;;;12.23;72.57
69574;BME280;62840;52.366;5.980;2022-09-12T05:13:29;101545.66;;;12.25;72.39
69574;BME280;62840;52.366;5.980;2022-09-12T05:15:57;101548.22;;;12.27;72.40
69574;BME280;62840;52.366;5.980;2022-09-12T05:18:26;101550.06;;;12.26;72.55
69574;BME280;62840;52.366;5.980;2022-09-12T05:20:53;101547.38;;;12.26;72.38
69574;BME280;62840;52.366;5.980;2022-09-12T05:23:20;101549.06;;;12.27;72.40
69574;BME280;62840;52.366;5.980;2022-09-12T05:25:47;101561.53;;;12.28;72.53
69574;BME280;62840;52.366;5.980;2022-09-12T05:28:13;101555.28;;;12.28;72.50
69574;BME280;62840;52.366;5.980;2022-09-12T05:30:39;101552.50;;;12.29;72.47
69574;BME280;62840;52.366;5.980;2022-09-12T05:33:05;101549.84;;;12.29;72.43
69574;BME280;62840;52.366;5.980;2022-09-12T05:35:33;101550.56;;;12.31;72.68
69574;BME280;62840;52.366;5.980;2022-09-12T05:37:59;101544.38;;;12.31;72.58
69574;BME280;62840;52.366;5.980;2022-09-12T05:40:25;101546.19;;;12.30;72.54
69574;BME280;62840;52.366;5.980;2022-09-12T05:42:50;101541.81;;;12.29;72.41
69574;BME280;62840;52.366;5.980;2022-09-12T05:45:16;101545.22;;;12.31;72.61
69574;BME280;62840;52.366;5.980;2022-09-12T05:47:45;101552.25;;;12.32;72.68
69574;BME280;62840;52.366;5.980;2022-09-12T05:50:11;101548.63;;;12.33;72.71
69574;BME280;62840;52.366;5.980;2022-09-12T05:52:39;101556.41;;;12.37;72.66
69574;BME280;62840;52.366;5.980;2022-09-12T05:55:06;101556.19;;;12.40;72.68
69574;BME280;62840;52.366;5.980;2022-09-12T05:57:32;101551.53;;;12.42;72.74
69574;BME280;62840;52.366;5.980;2022-09-12T05:59:58;101552.25;;;12.44;72.98
69574;BME280;62840;52.366;5.980;2022-09-12T06:02:24;101552.16;;;12.45;72.64
69574;BME280;62840;52.366;5.980;2022-09-12T06:04:50;101549.38;;;12.47;72.75
69574;BME280;62840;52.366;5.980;2022-09-12T06:07:15;101552.78;;;12.49;72.79
69574;BME280;62840;52.366;5.980;2022-09-12T06:09:44;101543.50;;;12.53;72.81
69574;BME280;62840;52.366;5.980;2022-09-12T06:12:09;101543.28;;;12.56;73.00
69574;BME280;62840;52.366;5.980;2022-09-12T06:14:35;101535.97;;;12.58;72.93
69574;BME280;62840;52.366;5.980;2022-09-12T06:17:01;101527.59;;;12.63;72.74
69574;BME280;62840;52.366;5.980;2022-09-12T06:19:26;101533.53;;;12.66;72.81
69574;BME280;62840;52.366;5.980;2022-09-12T06:21:52;101532.31;;;12.70;73.11
69574;BME280;62840;52.366;5.980;2022-09-12T06:24:19;101527.41;;;12.75;73.05
69574;BME280;62840;52.366;5.980;2022-09-12T06:26:48;101522.56;;;12.81;73.29
69574;BME280;62840;52.366;5.980;2022-09-12T06:29:15;101528.38;;;12.86;73.24
69574;BME280;62840;52.366;5.980;2022-09-12T06:31:42;101531.78;;;12.88;73.04
69574;BME280;62840;52.366;5.980;2022-09-12T06:34:10;101529.59;;;12.93;73.32
69574;BME280;62840;52.366;5.980;2022-09-12T06:36:38;101533.59;;;12.99;73.13
69574;BME280;62840;52.366;5.980;2022-09-12T06:39:10;101532.22;;;13.04;73.22
69574;BME280;62840;52.366;5.980;2022-09-12T06:41:37;101534.69;;;13.07;73.45
69574;BME280;62840;52.366;5.980;2022-09-12T06:44:05;101539.66;;;13.12;73.09
69574;BME280;62840;52.366;5.980;2022-09-12T06:46:31;101538.41;;;13.16;73.14
69574;BME280;62840;52.366;5.980;2022-09-12T06:48:58;101545.09;;;13.22;73.21
69574;BME280;62840;52.366;5.980;2022-09-12T06:51:26;101538.25;;;13.29;73.13
69574;BME280;62840;52.366;5.980;2022-09-12T06:53:54;101538.69;;;13.34;73.50
69574;BME280;62840;52.366;5.980;2022-09-12T06:56:23;101528.31;;;13.41;73.17
69574;BME280;62840;52.366;5.980;2022-09-12T06:58:52;101533.19;;;13.47;73.21
69574;BME280;62840;52.366;5.980;2022-09-12T07:01:24;101536.19;;;13.53;73.28
69574;BME280;62840;52.366;5.980;2022-09-12T07:03:52;101538.41;;;13.60;73.30
69574;BME280;62840;52.366;5.980;2022-09-12T07:06:21;101532.50;;;13.66;73.20
69574;BME280;62840;52.366;5.980;2022-09-12T07:08:48;101530.03;;;13.74;73.37
69574;BME280;62840;52.366;5.980;2022-09-12T07:11:16;101526.81;;;13.80;73.62
69574;BME280;62840;52.366;5.980;2022-09-12T07:13:46;101521.19;;;13.83;73.43
69574;BME280;62840;52.366;5.980;2022-09-12T07:16:14;101527.03;;;13.88;73.55
69574;BME280;62840;52.366;5.980;2022-09-12T07:18:44;101530.00;;;13.95;73.71
69574;BME280;62840;52.366;5.980;2022-09-12T07:21:14;101528.53;;;14.02;73.63
69574;BME280;62840;52.366;5.980;2022-09-12T07:23:40;101537.59;;;14.11;73.32
69574;BME280;62840;52.366;5.980;2022-09-12T07:26:07;101526.31;;;14.17;73.58
69574;BME280;62840;52.366;5.980;2022-09-12T07:28:35;101526.63;;;14.24;73.52
69574;BME280;62840;52.366;5.980;2022-09-12T07:31:05;101535.72;;;14.32;73.64
69574;BME280;62840;52.366;5.980;2022-09-12T07:33:32;101531.91;;;14.35;73.37
69574;BME280;62840;52.366;5.980;2022-09-12T07:36:03;101533.22;;;14.40;73.66
69574;BME280;62840;52.366;5.980;2022-09-12T07:38:31;101525.59;;;14.46;73.39
69574;BME280;62840;52.366;5.980;2022-09-12T07:40:57;101514.59;;;14.49;73.53
69574;BME280;62840;52.366;5.980;2022-09-12T07:43:22;101510.66;;;14.53;73.45
69574;BME280;62840;52.366;5.980;2022-09-12T07:45:54;101521.13;;;14.56;73.42
69574;BME280;62840;52.366;5.980;2022-09-12T07:48:20;101522.53;;;14.60;73.64
69574;BME280;62840;52.366;5.980;2022-09-12T07:50:45;101522.13;;;14.65;73.66
69574;BME280;62840;52.366;5.980;2022-09-12T07:53:14;101523.44;;;14.70;73.66
69574;BME280;62840;52.366;5.980;2022-09-12T07:55:40;101524.06;;;14.74;73.84
69574;BME280;62840;52.366;5.980;2022-09-12T07:58:05;101527.28;;;14.77;73.78
69574;BME280;62840;52.366;5.980;2022-09-12T08:00:31;101524.06;;;14.84;74.16
69574;BME280;62840;52.366;5.980;2022-09-12T08:02:57;101523.78;;;14.87;73.95
69574;BME280;62840;52.366;5.980;2022-09-12T08:05:22;101525.19;;;14.91;74.16
69574;BME280;62840;52.366;5.980;2022-09-12T08:07:48;101523.66;;;14.98;74.00
69574;BME280;62840;52.366;5.980;2022-09-12T08:10:16;101528.47;;;15.04;74.25
69574;BME280;62840;52.366;5.980;2022-09-12T08:12:42;101518.16;;;15.09;74.39
69574;BME280;62840;52.366;5.980;2022-09-12T08:15:08;101524.66;;;15.16;74.34
69574;BME280;62840;52.366;5.980;2022-09-12T08:17:35;101529.47;;;15.22;74.18
69574;BME280;62840;52.366;5.980;2022-09-12T08:20:01;101530.59;;;15.30;74.03
69574;BME280;62840;52.366;5.980;2022-09-12T08:22:29;101529.06;;;15.37;74.31
69574;BME280;62840;52.366;5.980;2022-09-12T08:24:55;101535.59;;;15.44;74.21
69574;BME280;62840;52.366;5.980;2022-09-12T08:27:23;101535.88;;;15.51;74.19
69574;BME280;62840;52.366;5.980;2022-09-12T08:29:49;101530.78;;;15.57;74.33
69574;BME280;62840;52.366;5.980;2022-09-12T08:32:15;101536.25;;;15.65;74.63
69574;BME280;62840;52.366;5.980;2022-09-12T08:34:40;101533.72;;;15.74;74.58
69574;BME280;62840;52.366;5.980;2022-09-12T08:37:06;101538.56;;;15.80;74.51
69574;BME280;62840;52.366;5.980;2022-09-12T08:39:32;101528.91;;;15.87;74.22
69574;BME280;62840;52.366;5.980;2022-09-12T08:42:00;101532.72;;;15.94;74.18
69574;BME280;62840;52.366;5.980;2022-09-12T08:44:40;101522.09;;;16.02;
69574;BME280;62840;52.366;5.980;2022-09-12T08:47:24;101527.56;;;16.11;74.33
69574;BME280;62840;52.366;5.980;2022-09-12T08:49:59;101520.59;;;16.18;73.88
69574;BME280;62840;52.366;5.980;2022-09-12T08:52:32;101521.41;;;16.28;73.95
69574;BME280;62840;52.366;5.980;2022-09-12T08:55:05;101515.28;;;16.36;74.01
69574;BME280;62840;52.366;5.980;2022-09-12T08:57:46;101516.25;;;16.44;73.91
69574;BME280;62840;52.366;5.980;2022-09-12T09:00:16;101506.28;;;16.55;74.04
69574;BME280;62840;52.366;5.980;2022-09-12T09:03:01;101517.00;;;16.64;73.67
69574;BME280;62840;52.366;5.980;2022-09-12T09:05:45;101515.25;;;16.73;73.58
69574;BME280;62840;52.366;5.980;2022-09-12T09:11:20;101518.56;;;16.95;73.32
69574;BME280;62840;52.366;5.980;2022-09-12T09:17:21;101513.34;;;17.11;73.39
69574;BME280;62840;52.366;5.980;2022-09-12T09:19:55;101513.56;;;17.18;72.93
69574;BME280;62840;52.366;5.980;2022-09-12T09:22:31;101506.41;;;17.26;72.82
69574;BME280;62840;52.366;5.980;2022-09-12T09:25:09;101509.16;;;17.35;72.55
69574;BME280;62840;52.366;5.980;2022-09-12T09:27:43;101508.56;;;17.41;72.96
69574;BME280;62840;52.366;5.980;2022-09-12T09:30:16;101498.81;;;17.48;72.60
69574;BME280;62840;52.366;5.980;2022-09-12T09:32:49;101496.91;;;17.58;72.27
69574;BME280;62840;52.366;5.980;2022-09-12T09:35:19;101504.03;;;17.67;72.41
69574;BME280;62840;52.366;5.980;2022-09-12T09:38:00;101495.88;;;17.77;72.22
69574;BME280;62840;52.366;5.980;2022-09-12T09:40:38;101489.72;;;17.85;72.11
69574;BME280;62840;52.366;5.980;2022-09-12T09:43:19;101485.03;;;17.95;71.71
69574;BME280;62840;52.366;5.980;2022-09-12T09:45:46;101481.56;;;18.03;71.62
69574;BME280;62840;52.366;5.980;2022-09-12T09:48:18;101479.72;;;18.11;71.65
69574;BME280;62840;52.366;5.980;2022-09-12T09:50:48;101484.31;;;18.19;71.58
69574;BME280;62840;52.366;5.980;2022-09-12T09:53:26;101478.09;;;18.27;71.73
69574;BME280;62840;52.366;5.980;2022-09-12T09:55:59;101472.06;;;18.33;71.76
69574;BME280;62840;52.366;5.980;2022-09-12T09:58:29;101467.88;;;18.39;71.19
69574;BME280;62840;52.366;5.980;2022-09-12T10:00:58;101470.09;;;18.43;71.09
69574;BME280;62840;52.366;5.980;2022-09-12T10:03:31;101463.19;;;18.49;71.00
69574;BME280;62840;52.366;5.980;2022-09-12T10:06:06;101457.97;;;18.55;70.97
69574;BME280;62840;52.366;5.980;2022-09-12T10:08:47;101465.41;;;18.62;70.92
69574;BME280;62840;52.366;5.980;2022-09-12T10:11:18;101454.81;;;18.68;70.89
69574;BME280;62840;52.366;5.980;2022-09-12T10:13:53;101456.69;;;18.76;70.68
69574;BME280;62840;52.366;5.980;2022-09-12T10:16:22;101455.00;;;18.83;70.32
69574;BME280;62840;52.366;5.980;2022-09-12T10:18:52;101452.50;;;18.90;70.86
69574;BME280;62840;52.366;5.980;2022-09-12T10:21:27;101445.59;;;18.95;70.95
69574;BME280;62840;52.366;5.980;2022-09-12T10:24:00;101437.81;;;19.01;70.43
69574;BME280;62840;52.366;5.980;2022-09-12T10:26:34;101437.16;;;19.07;70.20
69574;BME280;62840;52.366;5.980;2022-09-12T10:29:09;101439.84;;;19.15;70.29
69574;BME280;62840;52.366;5.980;2022-09-12T10:31:48;101435.28;;;19.24;69.79
69574;BME280;62840;52.366;5.980;2022-09-12T10:34:26;101433.41;;;19.32;70.01
69574;BME280;62840;52.366;5.980;2022-09-12T10:36:59;101426.31;;;19.39;69.68
69574;BME280;62840;52.366;5.980;2022-09-12T10:39:29;101436.44;;;19.46;69.85
69574;BME280;62840;52.366;5.980;2022-09-12T10:41:55;101426.63;;;19.53;69.61
69574;BME280;62840;52.366;5.980;2022-09-12T10:44:24;101422.25;;;19.60;69.50
69574;BME280;62840;52.366;5.980;2022-09-12T10:46:52;101419.69;;;19.67;68.74
69574;BME280;62840;52.366;5.980;2022-09-12T10:49:26;101417.16;;;19.73;68.20
69574;BME280;62840;52.366;5.980;2022-09-12T10:51:55;101423.75;;;19.79;68.44
69574;BME280;62840;52.366;5.980;2022-09-12T10:54:24;101424.91;;;19.85;68.25
69574;BME280;62840;52.366;5.980;2022-09-12T10:57:15;101422.19;;;19.93;67.87
69574;BME280;62840;52.366;5.980;2022-09-12T11:00:03;101418.78;;;19.99;67.92
69574;BME280;62840;52.366;5.980;2022-09-12T11:02:43;101422.47;;;20.06;67.39
69574;BME280;62840;52.366;5.980;2022-09-12T11:05:27;101416.34;;;20.12;67.27
69574;BME280;62840;52.366;5.980;2022-09-12T11:08:11;101411.91;;;20.19;67.36
69574;BME280;62840;52.366;5.980;2022-09-12T11:10:54;101414.41;;;20.29;67.32
69574;BME280;62840;52.366;5.980;2022-09-12T11:13:31;101399.31;;;20.35;66.60
69574;BME280;62840;52.366;5.980;2022-09-12T11:16:17;101384.06;;;20.42;66.27
69574;BME280;62840;52.366;5.980;2022-09-12T11:19:17;101384.38;;;20.47;65.07
69574;BME280;62840;52.366;5.980;2022-09-12T11:22:18;101388.03;;;20.54;65.57
69574;BME280;62840;52.366;5.980;2022-09-12T11:25:11;101396.28;;;20.61;65.18
69574;BME280;62840;52.366;5.980;2022-09-12T11:28:03;101390.00;;;20.69;65.05
69574;BME280;62840;52.366;5.980;2022-09-12T11:31:01;101381.63;;;20.78;64.59
69574;BME280;62840;52.366;5.980;2022-09-12T11:33:41;101389.88;;;20.85;65.03
69574;BME280;62840;52.366;5.980;2022-09-12T11:36:19;101393.69;;;20.91;65.03
69574;BME280;62840;52.366;5.980;2022-09-12T11:39:11;101395.91;;;20.95;64.98
69574;BME280;62840;52.366;5.980;2022-09-12T11:41:41;101390.09;;;20.98;64.78
69574;BME280;62840;52.366;5.980;2022-09-12T11:44:14;101384.31;;;21.01;64.46
69574;BME280;62840;52.366;5.980;2022-09-12T11:46:46;101389.38;;;21.04;64.43
69574;BME280;62840;52.366;5.980;2022-09-12T11:49:20;101379.81;;;21.09;64.35
69574;BME280;62840;52.366;5.980;2022-09-12T11:51:56;101382.84;;;21.14;64.17
69574;BME280;62840;52.366;5.980;2022-09-12T11:54:33;101386.38;;;21.22;63.85
69574;BME280;62840;52.366;5.980;2022-09-12T11:57:07;101388.16;;;21.30;63.72
69574;BME280;62840;52.366;5.980;2022-09-12T11:59:42;101391.16;;;21.35;62.85
69574;BME280;62840;52.366;5.980;2022-09-12T12:02:19;101383.31;;;21.40;62.22
69574;BME280;62840;52.366;5.980;2022-09-12T12:05:01;101374.63;;;21.45;61.94
69574;BME280;62840;52.366;5.980;2022-09-12T12:07:50;101375.91;;;21.49;62.10
69574;BME280;62840;52.366;5.980;2022-09-12T12:10:25;101371.78;;;21.53;62.32
69574;BME280;62840;52.366;5.980;2022-09-12T12:12:58;101378.06;;;21.54;62.31
69574;BME280;62840;52.366;5.980;2022-09-12T12:15:28;101382.75;;;21.60;62.13
69574;BME280;62840;52.366;5.980;2022-09-12T12:18:04;101375.94;;;21.64;62.14
69574;BME280;62840;52.366;5.980;2022-09-12T12:20:32;101379.97;;;21.68;61.67
69574;BME280;62840;52.366;5.980;2022-09-12T12:22:59;101383.34;;;21.70;61.09
69574;BME280;62840;52.366;5.980;2022-09-12T12:25:38;101380.88;;;21.75;61.23
69574;BME280;62840;52.366;5.980;2022-09-12T12:31:24;101371.69;;;21.76;60.92
69574;BME280;62840;52.366;5.980;2022-09-12T12:34:00;101375.06;;;21.78;60.84
69574;BME280;62840;52.366;5.980;2022-09-12T12:36:37;101359.44;;;21.80;61.12
69574;BME280;62840;52.366;5.980;2022-09-12T12:45:48;101353.66;;;21.83;60.35
69574;BME280;62840;52.366;5.980;2022-09-12T12:48:25;101339.69;;;21.86;60.63
69574;BME280;62840;52.366;5.980;2022-09-12T12:54:47;101337.88;;;21.94;59.15
69574;BME280;62840;52.366;5.980;2022-09-12T12:57:18;101331.78;;;21.92;59.66
69574;BME280;62840;52.366;5.980;2022-09-12T13:00:00;101326.00;;;21.95;59.86
69574;BME280;62840;52.366;5.980;2022-09-12T13:02:32;101323.59;;;22.00;59.59
69574;BME280;62840;52.366;5.980;2022-09-12T13:05:05;101310.25;;;22.05;59.52
69574;BME280;62840;52.366;5.980;2022-09-12T13:07:42;101310.72;;;22.09;59.64
69574;BME280;62840;52.366;5.980;2022-09-12T13:10:20;101316.59;;;22.12;59.57
69574;BME280;62840;52.366;5.980;2022-09-12T13:12:49;101307.03;;;22.16;59.49
69574;BME280;62840;52.366;5.980;2022-09-12T13:15:47;101310.03;;;22.21;57.65
69574;BME280;62840;52.366;5.980;2022-09-12T13:18:18;101301.88;;;22.21;58.46
69574;BME280;62840;52.366;5.980;2022-09-12T13:20:58;101297.47;;;22.20;58.00
69574;BME280;62840;52.366;5.980;2022-09-12T13:23:32;101291.22;;;22.20;58.64
69574;BME280;62840;52.366;5.980;2022-09-12T13:25:59;101293.53;;;22.23;58.44
69574;BME280;62840;52.366;5.980;2022-09-12T13:28:27;101287.91;;;22.24;58.15
69574;BME280;62840;52.366;5.980;2022-09-12T13:31:00;101281.44;;;22.25;57.84
69574;BME280;62840;52.366;5.980;2022-09-12T13:33:35;101274.97;;;22.26;58.24
69574;BME280;62840;52.366;5.980;2022-09-12T13:36:27;101278.34;;;22.28;57.00
69574;BME280;62840;52.366;5.980;2022-09-12T13:39:19;101274.59;;;22.30;57.50
69574;BME280;62840;52.366;5.980;2022-09-12T13:42:24;101263.72;;;22.30;57.18
69574;BME280;62840;52.366;5.980;2022-09-12T13:45:14;101258.28;;;22.30;57.72
69574;BME280;62840;52.366;5.980;2022-09-12T13:47:49;101259.75;;;22.32;58.01